createdAt,value
2017-10-19T00:00:20.811Z,65.40
2017-10-19T00:02:48.401Z,65.11
2017-10-19T00:05:15.960Z,65.39
2017-10-19T00:07:43.479Z,65.04
2017-10-19T00:10:11.014Z,65.07
2017-10-19T00:12:38.839Z,64.67
2017-10-19T00:15:06.363Z,64.64
2017-10-19T00:17:33.887Z,64.79
2017-10-19T00:20:01.608Z,64.92
2017-10-19T00:22:29.130Z,64.74
2017-10-19T00:24:56.651Z,64.55
2017-10-19T00:27:24.401Z,64.98
2017-10-19T00:29:51.960Z,65.16
2017-10-19T00:32:19.482Z,65.39
2017-10-19T00:34:47.181Z,65.12
2017-10-19T00:37:14.727Z,64.90
2017-10-19T00:39:42.252Z,64.88
2017-10-19T00:42:10.064Z,64.64
2017-10-19T00:44:37.583Z,64.18
2017-10-19T00:47:05.107Z,63.60
2017-10-19T00:49:32.963Z,63.25
2017-10-19T00:52:00.506Z,63.37
2017-10-19T00:54:28.064Z,63.47
2017-10-19T00:56:55.810Z,62.99
2017-10-19T00:59:23.351Z,63.52
2017-10-19T01:01:50.876Z,64.82
2017-10-19T01:04:18.612Z,64.73
2017-10-19T01:06:46.185Z,65.95
2017-10-19T01:09:13.713Z,64.74
2017-10-19T01:11:41.491Z,64.38
2017-10-19T01:14:09.049Z,65.68
2017-10-19T01:16:36.711Z,65.92
2017-10-19T01:19:04.476Z,65.68
2017-10-19T01:21:32.035Z,66.32
2017-10-19T01:23:59.575Z,66.84
2017-10-19T01:26:27.479Z,66.66
2017-10-19T01:28:55.019Z,65.75
2017-10-19T01:31:22.543Z,65.90
2017-10-19T01:33:50.238Z,65.30
2017-10-19T01:36:17.759Z,67.03
2017-10-19T01:38:45.278Z,66.59
2017-10-19T01:41:13.017Z,67.48
2017-10-19T01:43:40.576Z,67.26
2017-10-19T01:46:08.140Z,67.01
2017-10-19T01:48:35.854Z,66.05
2017-10-19T01:51:03.393Z,66.98
2017-10-19T01:53:30.919Z,67.60
2017-10-19T01:55:58.478Z,67.27
2017-10-19T01:58:26.010Z,68.37
2017-10-19T02:00:53.532Z,67.93
2017-10-19T02:03:21.236Z,68.44
2017-10-19T02:05:48.760Z,68.05
2017-10-19T02:08:16.287Z,67.84
2017-10-19T02:10:44.015Z,68.31
2017-10-19T02:13:11.595Z,67.94
2017-10-19T02:15:39.168Z,67.70
2017-10-19T02:18:06.728Z,67.73
2017-10-19T02:20:34.260Z,68.13
2017-10-19T02:23:01.831Z,67.70
2017-10-19T02:25:29.408Z,67.89
2017-10-19T02:27:56.951Z,67.96
2017-10-19T02:30:24.507Z,68.35
2017-10-19T02:32:52.373Z,67.89
2017-10-19T02:35:19.891Z,67.66
2017-10-19T02:37:47.420Z,67.56
2017-10-19T02:40:15.254Z,67.36
2017-10-19T02:42:42.862Z,67.88
2017-10-19T02:45:10.384Z,66.81
2017-10-19T02:47:38.120Z,66.79
2017-10-19T02:50:05.697Z,66.88
2017-10-19T02:52:33.255Z,66.76
2017-10-19T02:55:01.032Z,67.07
2017-10-19T02:57:28.577Z,66.86
2017-10-19T02:59:56.138Z,67.51
2017-10-19T03:02:23.902Z,67.87
2017-10-19T03:04:51.426Z,67.79
2017-10-19T03:07:18.948Z,67.40
2017-10-19T03:09:46.681Z,67.30
2017-10-19T03:12:14.240Z,67.51
2017-10-19T03:14:41.803Z,67.62
2017-10-19T03:17:09.671Z,67.88
2017-10-19T03:19:37.211Z,67.38
2017-10-19T03:22:04.739Z,67.40
2017-10-19T03:24:32.432Z,66.51
2017-10-19T03:26:59.960Z,67.22
2017-10-19T03:29:27.486Z,66.54
2017-10-19T03:31:55.327Z,66.91
2017-10-19T03:34:22.855Z,66.21
2017-10-19T03:36:50.376Z,65.88
2017-10-19T03:39:18.312Z,65.77
2017-10-19T03:41:45.870Z,66.24
2017-10-19T03:44:13.395Z,65.69
2017-10-19T03:46:41.192Z,64.95
2017-10-19T03:49:08.710Z,64.56
2017-10-19T03:51:36.621Z,65.35
2017-10-19T03:54:04.467Z,65.95
2017-10-19T03:56:31.999Z,65.85
2017-10-19T03:58:59.520Z,65.33
2017-10-19T04:01:27.074Z,65.58
2017-10-19T04:03:54.618Z,65.48
2017-10-19T04:06:22.178Z,65.58
2017-10-19T04:08:49.919Z,65.28
2017-10-19T04:11:17.455Z,65.47
2017-10-19T04:13:44.987Z,65.44
2017-10-19T04:16:12.911Z,64.82
2017-10-19T04:18:40.434Z,65.24
2017-10-19T04:21:07.959Z,65.11
2017-10-19T04:23:35.682Z,65.41
2017-10-19T04:26:03.209Z,65.00
2017-10-19T04:28:30.823Z,64.70
2017-10-19T04:30:58.806Z,63.79
2017-10-19T04:33:26.351Z,63.75
2017-10-19T04:35:54.013Z,62.83
2017-10-19T04:38:21.878Z,62.94
2017-10-19T04:40:49.439Z,62.91
2017-10-19T04:43:16.997Z,62.60
2017-10-19T04:45:44.559Z,62.28
2017-10-19T04:48:12.116Z,62.36
2017-10-19T04:50:39.674Z,62.79
2017-10-19T04:53:07.643Z,63.31
2017-10-19T04:55:35.201Z,63.75
2017-10-19T04:58:02.762Z,63.35
2017-10-19T05:00:30.340Z,63.45
2017-10-19T05:02:57.880Z,63.52
2017-10-19T05:05:25.440Z,63.70
2017-10-19T05:07:53.136Z,64.50
2017-10-19T05:10:20.657Z,64.04
2017-10-19T05:12:48.218Z,63.79
2017-10-19T05:15:15.796Z,63.57
2017-10-19T05:17:45.347Z,63.77
2017-10-19T05:20:12.870Z,64.13
2017-10-19T05:22:40.582Z,64.05
2017-10-19T05:25:08.099Z,64.08
2017-10-19T05:27:35.634Z,63.94
2017-10-19T05:30:03.199Z,63.89
2017-10-19T05:32:30.740Z,63.82
2017-10-19T05:34:58.298Z,63.28
2017-10-19T05:37:25.858Z,63.11
2017-10-19T05:39:53.423Z,62.98
2017-10-19T05:42:20.976Z,62.73
2017-10-19T05:44:48.540Z,62.44
2017-10-19T05:47:16.093Z,62.22
2017-10-19T05:49:43.616Z,61.69
2017-10-19T05:52:22.171Z,61.63
2017-10-19T05:54:49.733Z,61.41
2017-10-19T05:57:17.291Z,61.21
2017-10-19T05:59:45.046Z,61.25
2017-10-19T06:02:12.610Z,61.96
2017-10-19T06:04:40.136Z,61.97
2017-10-19T06:07:08.019Z,62.00
2017-10-19T06:09:35.542Z,61.79
2017-10-19T06:12:03.070Z,61.65
2017-10-19T06:14:30.712Z,61.34
2017-10-19T06:16:58.273Z,61.31
2017-10-19T06:19:25.805Z,61.09
2017-10-19T06:21:53.391Z,60.79
2017-10-19T06:24:20.950Z,60.81
2017-10-19T06:26:48.507Z,60.97
2017-10-19T06:29:16.071Z,60.90
2017-10-19T06:31:43.595Z,60.82
2017-10-19T06:34:11.118Z,60.38
2017-10-19T06:36:38.950Z,60.67
2017-10-19T06:39:06.508Z,60.80
2017-10-19T06:41:34.041Z,60.42
2017-10-19T06:44:01.933Z,61.47
2017-10-19T06:46:29.493Z,61.84
2017-10-19T06:48:57.034Z,61.30
2017-10-19T06:51:24.612Z,60.95
2017-10-19T06:53:52.174Z,60.72
2017-10-19T06:56:19.730Z,60.43
2017-10-19T06:58:47.614Z,60.10
2017-10-19T07:01:15.137Z,59.34
2017-10-19T07:03:42.659Z,60.25
2017-10-19T07:06:10.415Z,61.15
2017-10-19T07:08:37.972Z,61.98
2017-10-19T07:11:05.499Z,61.57
2017-10-19T07:13:33.235Z,60.00
2017-10-19T07:16:00.766Z,61.71
2017-10-19T07:18:28.296Z,61.14
2017-10-19T07:20:56.055Z,60.46
2017-10-19T07:23:23.595Z,60.28
2017-10-19T07:25:51.160Z,60.39
2017-10-19T07:28:19.206Z,59.13
2017-10-19T07:30:46.740Z,60.79
2017-10-19T07:33:14.276Z,59.53
2017-10-19T07:35:42.005Z,60.04
2017-10-19T07:38:09.564Z,59.82
2017-10-19T07:40:37.095Z,58.83
2017-10-19T07:43:04.689Z,58.71
2017-10-19T07:45:32.242Z,57.34
2017-10-19T07:47:59.800Z,57.24
2017-10-19T07:50:27.563Z,57.41
2017-10-19T07:52:55.109Z,57.85
2017-10-19T07:55:22.631Z,57.47
2017-10-19T07:57:50.551Z,56.98
2017-10-19T08:00:18.080Z,56.65
2017-10-19T08:02:45.600Z,57.00
2017-10-19T08:05:13.329Z,57.30
2017-10-19T08:07:40.890Z,57.55
2017-10-19T08:10:08.447Z,56.16
2017-10-19T08:12:36.212Z,56.09
2017-10-19T08:15:03.770Z,56.25
2017-10-19T08:17:31.330Z,54.96
2017-10-19T08:19:58.894Z,55.05
2017-10-19T08:22:26.416Z,54.79
2017-10-19T08:24:53.937Z,54.26
2017-10-19T08:27:21.770Z,53.83
2017-10-19T08:29:49.329Z,54.71
2017-10-19T08:32:16.867Z,53.91
2017-10-19T08:34:44.740Z,53.12
2017-10-19T08:37:12.263Z,53.12
2017-10-19T08:39:39.782Z,51.84
2017-10-19T08:42:07.348Z,50.76
2017-10-19T08:44:34.888Z,50.08
2017-10-19T08:47:02.451Z,48.90
2017-10-19T08:49:30.027Z,47.77
2017-10-19T08:51:57.568Z,45.52
2017-10-19T08:54:25.125Z,43.97
2017-10-19T08:56:52.695Z,43.47
2017-10-19T08:59:20.246Z,42.31
2017-10-19T09:01:47.763Z,41.83
2017-10-19T09:04:15.751Z,41.98
2017-10-19T09:06:43.347Z,40.19
2017-10-19T09:09:10.906Z,38.55
2017-10-19T09:11:38.844Z,38.34
2017-10-19T09:14:06.371Z,38.60
2017-10-19T09:16:33.897Z,37.17
2017-10-19T09:19:01.584Z,28.75
2017-10-19T09:21:29.102Z,25.22
2017-10-19T09:23:56.663Z,23.67
2017-10-19T09:26:24.219Z,24.62
2017-10-19T09:28:51.770Z,25.12
2017-10-19T09:31:19.331Z,27.06
2017-10-19T09:33:47.197Z,27.02
2017-10-19T09:36:14.755Z,28.91
2017-10-19T09:38:42.324Z,28.15
2017-10-19T09:41:10.078Z,28.65
2017-10-19T09:43:37.622Z,28.18
2017-10-19T09:46:05.300Z,28.52
2017-10-19T09:48:32.867Z,27.62
2017-10-19T09:51:00.417Z,27.29
2017-10-19T09:53:27.977Z,27.12
2017-10-19T09:55:55.683Z,27.97
2017-10-19T09:58:23.210Z,26.49
2017-10-19T10:00:50.756Z,24.31
2017-10-19T10:03:18.499Z,23.38
2017-10-19T10:05:46.023Z,23.30
2017-10-19T10:08:13.542Z,21.15
2017-10-19T10:10:41.283Z,19.42
2017-10-19T10:13:08.819Z,18.47
2017-10-19T10:15:37.340Z,17.33
2017-10-19T10:18:05.223Z,20.35
2017-10-19T10:20:32.765Z,22.15
2017-10-19T10:23:00.284Z,23.75
2017-10-19T10:25:28.024Z,24.51
2017-10-19T10:27:55.595Z,26.00
2017-10-19T10:30:23.111Z,26.47
2017-10-19T10:32:51.774Z,26.47
2017-10-19T10:35:19.379Z,27.28
2017-10-19T10:37:46.907Z,25.13
2017-10-19T10:40:14.491Z,24.78
2017-10-19T10:42:42.011Z,24.16
2017-10-19T10:45:09.532Z,23.92
2017-10-19T10:47:37.352Z,23.25
2017-10-19T10:50:04.908Z,21.89
2017-10-19T10:52:32.486Z,21.99
2017-10-19T10:55:00.438Z,21.56
2017-10-19T10:57:27.999Z,22.20
2017-10-19T10:59:55.556Z,21.21
2017-10-19T11:02:23.522Z,19.32
2017-10-19T11:04:51.085Z,17.20
2017-10-19T11:07:18.637Z,14.40
2017-10-19T11:09:46.231Z,15.75
2017-10-19T11:12:13.760Z,16.83
2017-10-19T11:14:41.275Z,17.93
2017-10-19T11:17:09.107Z,17.44
2017-10-19T11:19:36.641Z,17.76
2017-10-19T11:22:04.207Z,15.84
2017-10-19T11:24:31.786Z,14.05
2017-10-19T11:26:59.319Z,13.22
2017-10-19T11:29:26.836Z,12.10
2017-10-19T11:31:54.437Z,12.86
2017-10-19T11:34:21.951Z,12.37
2017-10-19T11:36:49.475Z,11.19
2017-10-19T11:39:17.024Z,9.21
2017-10-19T11:41:44.672Z,8.66
2017-10-19T11:44:12.184Z,8.41
2017-10-19T11:46:40.714Z,8.38
2017-10-19T11:49:08.273Z,8.40
2017-10-19T11:51:35.833Z,9.57
2017-10-19T11:54:03.805Z,8.08
2017-10-19T11:56:31.360Z,8.19
2017-10-19T11:58:59.401Z,8.31
2017-10-19T12:01:27.114Z,8.25
2017-10-19T12:03:54.765Z,7.59
2017-10-19T12:06:22.321Z,7.67
2017-10-19T12:08:49.975Z,7.17
2017-10-19T12:11:17.534Z,7.22
2017-10-19T12:13:45.095Z,8.91
2017-10-19T12:16:12.856Z,11.71
2017-10-19T12:18:40.366Z,15.13
2017-10-19T12:21:07.976Z,17.98
2017-10-19T12:23:35.721Z,21.53
2017-10-19T12:26:03.267Z,24.35
2017-10-19T12:28:30.785Z,24.53
2017-10-19T12:30:58.499Z,26.61
2017-10-19T12:33:26.015Z,27.08
2017-10-19T12:35:53.535Z,28.56
2017-10-19T12:38:21.504Z,28.62
2017-10-19T12:40:49.166Z,28.68
2017-10-19T12:43:16.724Z,28.43
2017-10-19T12:45:44.304Z,28.76
2017-10-19T12:48:11.822Z,28.88
2017-10-19T12:50:39.341Z,30.34
2017-10-19T12:53:07.180Z,29.45
2017-10-19T12:55:34.725Z,29.76
2017-10-19T12:58:02.252Z,30.88
2017-10-19T13:00:30.051Z,30.29
2017-10-19T13:02:57.688Z,30.48
2017-10-19T13:05:25.270Z,30.40
2017-10-19T13:07:52.955Z,30.35
2017-10-19T13:10:20.592Z,29.89
2017-10-19T13:12:48.166Z,29.77
2017-10-19T13:15:15.927Z,31.17
2017-10-19T13:17:43.448Z,30.77
2017-10-19T13:20:10.964Z,30.52
2017-10-19T13:22:38.834Z,31.23
2017-10-19T13:25:06.451Z,31.14
2017-10-19T13:27:34.018Z,31.56
2017-10-19T13:30:01.979Z,31.21
2017-10-19T13:32:29.547Z,32.47
2017-10-19T13:34:57.215Z,32.83
2017-10-19T13:37:24.799Z,32.46
2017-10-19T13:39:52.335Z,32.02
2017-10-19T13:42:19.861Z,32.86
2017-10-19T13:44:47.661Z,32.31
2017-10-19T13:47:15.207Z,32.69
2017-10-19T13:49:42.920Z,32.99
2017-10-19T13:52:10.950Z,33.31
2017-10-19T13:54:38.552Z,32.62
2017-10-19T13:57:06.079Z,32.77
2017-10-19T13:59:33.915Z,32.38
2017-10-19T14:02:01.456Z,32.06
2017-10-19T14:04:28.976Z,32.20
2017-10-19T14:06:56.531Z,32.58
2017-10-19T14:09:24.079Z,32.12
2017-10-19T14:11:51.647Z,31.91
2017-10-19T14:14:19.519Z,31.46
2017-10-19T14:16:47.042Z,31.75
2017-10-19T14:19:14.723Z,32.12
2017-10-19T14:21:42.686Z,32.87
2017-10-19T14:24:10.241Z,32.96
2017-10-19T14:26:37.895Z,33.63
2017-10-19T14:29:06.082Z,34.26
2017-10-19T14:31:34.407Z,34.28
2017-10-19T14:34:02.108Z,34.17
2017-10-19T14:36:30.178Z,33.76
2017-10-19T14:38:57.926Z,34.27
2017-10-19T14:41:25.808Z,34.59
2017-10-19T14:43:53.888Z,35.00
2017-10-19T14:46:21.469Z,34.60
2017-10-19T14:48:48.997Z,34.49
2017-10-19T14:51:16.946Z,34.66
2017-10-19T14:53:44.551Z,34.48
2017-10-19T14:56:12.088Z,34.43
2017-10-19T14:58:39.659Z,33.84
2017-10-19T15:01:07.496Z,33.81
2017-10-19T15:03:35.276Z,34.53
2017-10-19T15:06:03.142Z,34.39
2017-10-19T15:08:30.701Z,34.48
2017-10-19T15:10:59.184Z,35.03
2017-10-19T15:13:27.458Z,34.91
2017-10-19T15:15:55.230Z,34.79
2017-10-19T15:18:22.789Z,34.85
2017-10-19T15:20:50.557Z,35.17
2017-10-19T15:23:18.344Z,35.20
2017-10-19T15:25:45.923Z,35.13
2017-10-19T15:28:13.890Z,35.30
2017-10-19T15:30:41.432Z,35.14
2017-10-19T15:33:09.151Z,35.51
2017-10-19T15:35:37.355Z,35.98
2017-10-19T15:38:04.936Z,36.33
2017-10-19T15:40:32.553Z,36.46
2017-10-19T15:43:00.639Z,36.46
2017-10-19T15:45:33.019Z,36.82
2017-10-19T15:48:00.819Z,37.24
2017-10-19T15:50:28.933Z,37.71
2017-10-19T15:52:56.493Z,38.04
2017-10-19T15:55:25.057Z,38.30
2017-10-19T15:57:52.741Z,38.88
2017-10-19T16:00:20.400Z,39.89
2017-10-19T16:02:48.310Z,40.43
2017-10-19T16:05:16.724Z,41.14
2017-10-19T16:07:44.414Z,41.52
2017-10-19T16:10:12.603Z,42.16
2017-10-19T16:12:40.217Z,42.47
2017-10-19T16:15:08.095Z,42.62
2017-10-19T16:17:36.499Z,42.88
2017-10-19T16:20:04.295Z,43.05
2017-10-19T16:22:33.142Z,43.21
2017-10-19T16:25:01.427Z,43.51
2017-10-19T16:27:29.286Z,43.76
2017-10-19T16:29:57.153Z,43.96
2017-10-19T16:32:25.120Z,44.32
2017-10-19T16:34:52.897Z,44.74
2017-10-19T16:37:21.775Z,44.91
2017-10-19T16:39:49.672Z,45.43
2017-10-19T16:42:17.550Z,45.32
2017-10-19T16:44:45.402Z,45.43
2017-10-19T16:47:13.658Z,45.74
2017-10-19T16:49:41.536Z,45.77
2017-10-19T16:52:09.303Z,45.79
2017-10-19T16:54:37.019Z,46.25
2017-10-19T16:57:04.808Z,46.90
2017-10-19T16:59:32.678Z,47.26
2017-10-19T17:02:00.541Z,47.50
2017-10-19T17:04:28.363Z,47.52
2017-10-19T17:06:56.005Z,47.79
2017-10-19T17:09:24.447Z,48.12
2017-10-19T17:11:52.312Z,48.86
2017-10-19T17:14:20.077Z,49.75
2017-10-19T17:16:48.152Z,49.98
2017-10-19T17:19:16.022Z,50.04
2017-10-19T17:21:43.882Z,50.50
2017-10-19T17:24:11.925Z,50.41
2017-10-19T17:26:39.917Z,50.32
2017-10-19T17:29:07.708Z,50.54
2017-10-19T17:31:35.447Z,50.68
2017-10-19T17:34:03.212Z,51.24
2017-10-19T17:36:30.875Z,52.05
2017-10-19T17:38:58.836Z,52.23
2017-10-19T17:41:26.509Z,52.32
2017-10-19T17:43:54.074Z,53.88
2017-10-19T17:46:22.136Z,54.34
2017-10-19T17:48:49.894Z,55.70
2017-10-19T17:51:17.664Z,55.30
2017-10-19T17:53:45.837Z,54.96
2017-10-19T17:56:13.600Z,54.84
2017-10-19T17:58:41.233Z,55.45
2017-10-19T18:01:08.923Z,55.70
2017-10-19T18:03:36.686Z,55.44
2017-10-19T18:06:04.427Z,56.16
2017-10-19T18:08:32.522Z,56.05
2017-10-19T18:11:00.595Z,56.68
2017-10-19T18:13:28.459Z,56.86
2017-10-19T18:15:56.637Z,56.90
2017-10-19T18:18:24.529Z,56.84
2017-10-19T18:20:52.444Z,57.26
2017-10-19T18:23:20.412Z,57.18
2017-10-19T18:25:48.777Z,57.56
2017-10-19T18:28:16.684Z,58.07
2017-10-19T18:30:44.787Z,57.47
2017-10-19T18:33:13.028Z,58.16
2017-10-19T18:35:40.997Z,57.95
2017-10-19T18:38:09.296Z,58.32
2017-10-19T18:40:37.245Z,58.14
2017-10-19T18:43:05.726Z,58.25
2017-10-19T18:45:33.896Z,57.87
2017-10-19T18:48:02.273Z,57.42
2017-10-19T18:50:30.246Z,57.37
2017-10-19T18:52:59.747Z,58.71
2017-10-19T18:55:27.613Z,58.46
2017-10-19T18:57:55.480Z,58.31
2017-10-19T19:00:24.472Z,58.07
2017-10-19T19:02:52.339Z,58.92
2017-10-19T19:05:21.024Z,58.62
2017-10-19T19:07:49.199Z,58.36
2017-10-19T19:10:17.066Z,58.24
2017-10-19T19:12:45.958Z,57.99
2017-10-19T19:15:14.129Z,58.47
2017-10-19T19:17:41.994Z,58.14
2017-10-19T19:20:09.784Z,57.91
2017-10-19T19:22:38.157Z,57.83
2017-10-19T19:25:06.106Z,57.66
2017-10-19T19:27:33.929Z,57.24
2017-10-19T19:30:02.045Z,57.34
2017-10-19T19:32:29.910Z,57.32
2017-10-19T19:34:57.732Z,57.77
2017-10-19T19:37:25.646Z,57.48
2017-10-19T19:39:53.508Z,57.92
2017-10-19T19:42:21.305Z,58.07
2017-10-19T19:44:49.159Z,58.30
2017-10-19T19:47:17.141Z,58.48
2017-10-19T19:49:45.712Z,58.50
2017-10-19T19:52:14.171Z,58.05
2017-10-19T19:54:42.140Z,57.55
2017-10-19T19:57:10.007Z,57.67
2017-10-19T19:59:38.077Z,57.51
2017-10-19T20:02:05.657Z,57.49
2017-10-19T20:04:33.607Z,57.49
2017-10-19T20:07:01.471Z,57.93
2017-10-19T20:09:29.208Z,57.50
2017-10-19T20:11:56.901Z,57.60
2017-10-19T20:14:24.974Z,57.31
2017-10-19T20:16:52.773Z,57.26
2017-10-19T20:19:20.702Z,57.48
2017-10-19T20:21:49.796Z,57.51
2017-10-19T20:24:17.445Z,57.04
2017-10-19T20:26:45.262Z,57.80
2017-10-19T20:29:13.161Z,58.08
2017-10-19T20:31:40.958Z,58.15
2017-10-19T20:34:09.332Z,57.94
2017-10-19T20:36:37.403Z,57.87
2017-10-19T20:39:05.047Z,57.43
2017-10-19T20:41:33.240Z,57.24
2017-10-19T20:44:01.207Z,57.38
2017-10-19T20:46:28.966Z,57.08
2017-10-19T20:48:56.734Z,57.37
2017-10-19T20:51:24.986Z,57.44
2017-10-19T20:53:52.994Z,57.55
2017-10-19T20:56:20.747Z,57.77
2017-10-19T20:58:48.609Z,59.44
2017-10-19T21:01:16.201Z,59.71
2017-10-19T21:03:43.744Z,60.09
2017-10-19T21:06:11.321Z,60.10
2017-10-19T21:08:38.950Z,61.52
2017-10-19T21:11:06.513Z,59.81
2017-10-19T21:13:34.460Z,58.77
2017-10-19T21:16:02.241Z,56.80
2017-10-19T21:18:29.985Z,54.93
2017-10-19T21:20:57.725Z,55.04
2017-10-19T21:23:25.262Z,54.90
2017-10-19T21:25:52.799Z,54.93
2017-10-19T21:28:20.754Z,54.83
2017-10-19T21:30:48.280Z,55.50
2017-10-19T21:33:15.965Z,56.61
2017-10-19T21:35:43.692Z,56.39
2017-10-19T21:38:11.258Z,56.29
2017-10-19T21:40:38.785Z,55.30
2017-10-19T21:43:07.030Z,55.62
2017-10-19T21:45:34.587Z,55.78
2017-10-19T21:48:02.131Z,57.18
2017-10-19T21:50:30.148Z,57.66
2017-10-19T21:52:57.784Z,57.35
2017-10-19T21:55:25.319Z,57.61
2017-10-19T21:57:53.188Z,57.59
2017-10-19T22:00:20.731Z,56.59
2017-10-19T22:02:48.252Z,56.65
2017-10-19T22:05:16.150Z,55.70
2017-10-19T22:07:43.666Z,55.86
2017-10-19T22:10:11.191Z,55.90
2017-10-19T22:12:38.752Z,56.37
2017-10-19T22:15:06.276Z,56.67
2017-10-19T22:17:33.804Z,56.48
2017-10-19T22:20:01.627Z,56.49
2017-10-19T22:22:29.160Z,57.55
2017-10-19T22:24:56.682Z,57.71
2017-10-19T22:27:24.375Z,57.78
2017-10-19T22:29:51.895Z,57.50
2017-10-19T22:32:19.441Z,57.93
2017-10-19T22:34:47.391Z,59.13
2017-10-19T22:37:14.923Z,58.63
2017-10-19T22:39:42.464Z,56.95
2017-10-19T22:42:10.011Z,56.64
2017-10-19T22:44:37.546Z,56.71
2017-10-19T22:47:05.091Z,57.13
2017-10-19T22:49:32.957Z,57.25
2017-10-19T22:52:00.480Z,57.56
2017-10-19T22:54:28.031Z,57.85
2017-10-19T22:56:55.931Z,58.54
2017-10-19T22:59:23.468Z,57.81
2017-10-19T23:01:50.992Z,57.89
2017-10-19T23:04:19.453Z,56.95
2017-10-19T23:06:46.971Z,56.51
2017-10-19T23:09:14.657Z,56.57
2017-10-19T23:11:42.414Z,56.14
2017-10-19T23:14:09.990Z,55.56
2017-10-19T23:16:37.520Z,55.73
2017-10-19T23:19:05.101Z,55.78
2017-10-19T23:21:32.786Z,55.84
2017-10-19T23:24:00.331Z,55.97
2017-10-19T23:26:28.179Z,55.73
2017-10-19T23:28:55.704Z,55.35
2017-10-19T23:31:23.223Z,55.04
2017-10-19T23:33:51.227Z,55.07
2017-10-19T23:36:18.775Z,55.57
2017-10-19T23:38:46.439Z,56.20
2017-10-19T23:41:14.152Z,56.26
2017-10-19T23:43:41.811Z,56.14
2017-10-19T23:46:09.387Z,57.38
2017-10-19T23:48:36.959Z,57.03
2017-10-19T23:51:04.485Z,57.22
2017-10-19T23:53:32.065Z,57.99
2017-10-19T23:55:59.811Z,57.30
2017-10-19T23:58:28.106Z,57.02
